createdAt,value
2023-10-19T00:01:31.708Z,92693.75
2023-10-19T00:04:01.422Z,92695.88
2023-10-19T00:06:29.554Z,92705.84
2023-10-19T00:08:58.216Z,92704.63
2023-10-19T00:11:29.688Z,92703.13
2023-10-19T00:14:00.467Z,92688.59
2023-10-19T00:16:32.017Z,92718.16
2023-10-19T00:19:03.415Z,92728.81
2023-10-19T00:21:32.547Z,92741.97
2023-10-19T00:24:07.440Z,92745.41
2023-10-19T00:26:35.824Z,92782.91
2023-10-19T00:29:20.844Z,92770.47
2023-10-19T00:31:50.742Z,92781.31
2023-10-19T00:34:20.290Z,92753.00
2023-10-19T00:36:50.864Z,92766.00
2023-10-19T00:39:23.791Z,92777.50
2023-10-19T00:41:52.980Z,92789.22
2023-10-19T00:44:25.575Z,92800.63
2023-10-19T00:47:06.684Z,92768.34
2023-10-19T00:49:35.483Z,92788.63
2023-10-19T00:52:14.110Z,92790.00
2023-10-19T00:54:53.883Z,92788.63
2023-10-19T00:57:22.667Z,92783.09
2023-10-19T01:00:03.281Z,92798.59
2023-10-19T01:02:31.930Z,92800.16
2023-10-19T01:05:07.466Z,92802.47
2023-10-19T01:07:40.383Z,92803.69
2023-10-19T01:10:14.702Z,92812.31
2023-10-19T01:12:43.463Z,92790.00
2023-10-19T01:15:32.178Z,92795.69
2023-10-19T01:18:03.965Z,92805.66
2023-10-19T01:20:34.187Z,92802.91
2023-10-19T01:23:11.700Z,92777.00
2023-10-19T01:26:00.642Z,92795.81
2023-10-19T01:28:45.367Z,92794.75
2023-10-19T01:31:30.399Z,92766.31
2023-10-19T01:34:08.965Z,92776.47
2023-10-19T01:36:56.734Z,92793.81
2023-10-19T01:39:25.349Z,92785.91
2023-10-19T01:41:53.508Z,92777.13
2023-10-19T01:44:23.744Z,92772.72
2023-10-19T01:46:52.455Z,92774.59
2023-10-19T01:49:30.423Z,92794.19
2023-10-19T01:51:58.872Z,92777.31
2023-10-19T01:54:27.525Z,92799.19
2023-10-19T01:56:59.652Z,92798.47
2023-10-19T01:59:30.375Z,92807.63
2023-10-19T02:01:59.921Z,92797.78
2023-10-19T02:04:28.908Z,92807.59
2023-10-19T02:06:57.521Z,92815.06
2023-10-19T02:09:29.099Z,92818.69
2023-10-19T02:11:59.977Z,92823.66
2023-10-19T02:14:33.730Z,92829.84
2023-10-19T02:17:06.362Z,92829.13
2023-10-19T02:19:35.089Z,92831.69
2023-10-19T02:22:14.528Z,92839.72
2023-10-19T02:24:43.163Z,92838.13
2023-10-19T02:27:19.471Z,92846.34
2023-10-19T02:29:53.051Z,92843.13
2023-10-19T02:32:21.596Z,92844.88
2023-10-19T02:34:50.803Z,92850.78
2023-10-19T02:37:19.459Z,92847.31
2023-10-19T02:39:47.432Z,92844.81
2023-10-19T02:42:15.594Z,92855.22
2023-10-19T02:44:44.196Z,92862.50
2023-10-19T02:47:13.528Z,92862.38
2023-10-19T02:49:42.273Z,92843.13
2023-10-19T02:52:13.012Z,92874.03
2023-10-19T02:54:42.258Z,92871.59
2023-10-19T02:57:14.536Z,92875.56
2023-10-19T02:59:43.252Z,92885.19
2023-10-19T03:02:15.782Z,92890.50
2023-10-19T03:04:45.332Z,92862.53
2023-10-19T03:07:18.184Z,92883.28
2023-10-19T03:09:56.112Z,92867.25
2023-10-19T03:12:29.195Z,92882.03
2023-10-19T03:14:57.613Z,92894.94
2023-10-19T03:17:27.642Z,92885.06
2023-10-19T03:19:56.712Z,92893.41
2023-10-19T03:22:25.861Z,92902.75
2023-10-19T03:25:14.698Z,92897.69
2023-10-19T03:27:46.860Z,92905.75
2023-10-19T03:30:20.389Z,92894.44
2023-10-19T03:32:49.984Z,92885.25
2023-10-19T03:35:18.258Z,92878.22
2023-10-19T03:37:49.850Z,92911.38
2023-10-19T03:40:27.686Z,92914.53
2023-10-19T03:42:56.976Z,92883.31
2023-10-19T03:45:26.938Z,92887.41
2023-10-19T03:47:57.879Z,92909.81
2023-10-19T03:50:27.879Z,92892.78
2023-10-19T03:52:56.107Z,92893.56
2023-10-19T03:55:25.595Z,92915.75
2023-10-19T03:57:56.831Z,92920.16
2023-10-19T04:00:30.556Z,92924.03
2023-10-19T04:03:00.980Z,92912.25
2023-10-19T04:05:30.721Z,92918.63
2023-10-19T04:08:00.474Z,92924.34
2023-10-19T04:10:38.105Z,92924.91
2023-10-19T04:13:07.187Z,92924.78
2023-10-19T04:15:36.346Z,92920.91
2023-10-19T04:18:12.623Z,92927.69
2023-10-19T04:20:56.911Z,92903.97
2023-10-19T04:23:37.148Z,92932.41
2023-10-19T04:26:08.976Z,92941.72
2023-10-19T04:28:44.080Z,92932.44
2023-10-19T04:31:15.824Z,92931.97
2023-10-19T04:33:48.148Z,92929.38
2023-10-19T04:36:17.403Z,92937.16
2023-10-19T04:38:46.331Z,92938.72
2023-10-19T04:41:15.007Z,92938.47
2023-10-19T04:43:45.776Z,92944.91
2023-10-19T04:46:14.896Z,92921.66
2023-10-19T04:48:44.714Z,92947.00
2023-10-19T04:51:14.222Z,92953.19
2023-10-19T04:53:42.936Z,92949.78
2023-10-19T04:56:11.519Z,92934.81
2023-10-19T04:58:40.133Z,92953.16
2023-10-19T05:01:08.838Z,92949.53
2023-10-19T05:03:37.644Z,92949.28
2023-10-19T05:06:06.799Z,92957.78
2023-10-19T05:08:35.412Z,92929.88
2023-10-19T05:11:03.970Z,92937.88
2023-10-19T05:13:35.281Z,92962.66
2023-10-19T05:16:04.538Z,92963.44
2023-10-19T05:18:33.201Z,92960.56
2023-10-19T05:21:03.171Z,92942.97
2023-10-19T05:23:32.330Z,92960.00
2023-10-19T05:26:07.092Z,92963.63
2023-10-19T05:28:35.353Z,92934.16
2023-10-19T05:31:03.948Z,92948.88
2023-10-19T05:33:41.935Z,92954.06
2023-10-19T05:36:10.794Z,92945.78
2023-10-19T05:38:39.551Z,92945.25
2023-10-19T05:41:08.280Z,92926.06
2023-10-19T05:43:38.101Z,92955.50
2023-10-19T05:46:07.208Z,92951.59
2023-10-19T05:48:35.979Z,92955.72
2023-10-19T05:51:05.420Z,92922.59
2023-10-19T05:53:33.624Z,92955.69
2023-10-19T05:56:02.325Z,92931.94
2023-10-19T05:58:30.922Z,92940.72
2023-10-19T06:01:01.988Z,92949.81
2023-10-19T06:03:30.802Z,92950.13
2023-10-19T06:05:59.483Z,92923.47
2023-10-19T06:08:28.376Z,92963.25
2023-10-19T06:10:57.221Z,92940.44
2023-10-19T06:13:26.031Z,92960.88
2023-10-19T06:15:54.703Z,92961.16
2023-10-19T06:18:23.528Z,92964.47
2023-10-19T06:20:53.902Z,92962.06
2023-10-19T06:23:22.569Z,92960.16
2023-10-19T06:25:53.306Z,92949.50
2023-10-19T06:28:22.017Z,92957.69
2023-10-19T06:30:50.746Z,92967.19
2023-10-19T06:33:19.605Z,92977.72
2023-10-19T06:35:49.336Z,92988.06
2023-10-19T06:38:19.353Z,92980.91
2023-10-19T06:40:48.753Z,92967.41
2023-10-19T06:43:16.998Z,92977.78
2023-10-19T06:45:47.704Z,92984.41
2023-10-19T06:48:17.377Z,92950.34
2023-10-19T06:50:51.480Z,92987.72
2023-10-19T06:53:21.178Z,92993.66
2023-10-19T06:55:50.469Z,92964.94
2023-10-19T06:58:22.142Z,93000.59
2023-10-19T07:00:58.997Z,93012.22
2023-10-19T07:03:27.730Z,93007.19
2023-10-19T07:05:56.455Z,93020.72
2023-10-19T07:08:25.273Z,93028.16
2023-10-19T07:10:53.777Z,93023.53
2023-10-19T07:13:23.082Z,92999.66
2023-10-19T07:15:51.845Z,93023.97
2023-10-19T07:18:20.515Z,93017.44
2023-10-19T07:20:51.225Z,93029.56
2023-10-19T07:23:23.915Z,93032.44
2023-10-19T07:26:02.085Z,93011.94
2023-10-19T07:28:30.884Z,93025.16
2023-10-19T07:30:59.384Z,93034.69
2023-10-19T07:33:29.058Z,93047.06
2023-10-19T07:35:57.731Z,93040.13
2023-10-19T07:38:27.695Z,93042.84
2023-10-19T07:40:56.457Z,93019.66
2023-10-19T07:43:25.183Z,93044.47
2023-10-19T07:45:54.524Z,93054.31
2023-10-19T07:48:23.311Z,93064.72
2023-10-19T07:50:52.192Z,93056.59
2023-10-19T07:53:21.128Z,93038.81
2023-10-19T07:55:49.813Z,93051.06
2023-10-19T07:58:18.468Z,93051.63
2023-10-19T08:00:49.457Z,93055.25
2023-10-19T08:03:18.957Z,93053.25
2023-10-19T08:05:47.568Z,93033.59
2023-10-19T08:08:16.201Z,93055.34
2023-10-19T08:10:44.857Z,93052.25
2023-10-19T08:13:14.825Z,93045.59
2023-10-19T08:15:44.664Z,93037.81
2023-10-19T08:18:15.025Z,93052.81
2023-10-19T08:20:44.382Z,93041.44
2023-10-19T08:23:13.156Z,93053.34
2023-10-19T08:25:55.326Z,93061.09
2023-10-19T08:28:25.645Z,93060.59
2023-10-19T08:31:02.645Z,93037.63
2023-10-19T08:33:32.457Z,93059.88
2023-10-19T08:36:02.531Z,93059.09
2023-10-19T08:38:30.778Z,93058.84
2023-10-19T08:41:00.354Z,93028.84
2023-10-19T08:43:30.733Z,93052.34
2023-10-19T08:46:00.233Z,93061.88
2023-10-19T08:48:28.256Z,93064.19
2023-10-19T08:50:58.007Z,93057.47
2023-10-19T08:53:27.161Z,93059.25
2023-10-19T08:55:58.244Z,93036.78
2023-10-19T08:58:26.869Z,93021.75
2023-10-19T09:00:58.777Z,93049.13
2023-10-19T09:03:28.434Z,93046.81
2023-10-19T09:05:58.578Z,93042.13
2023-10-19T09:08:28.195Z,93018.53
2023-10-19T09:10:59.448Z,93042.25
2023-10-19T09:13:28.272Z,93044.25
2023-10-19T09:15:58.017Z,93052.00
2023-10-19T09:18:32.967Z,93049.13
2023-10-19T09:21:13.531Z,93024.03
2023-10-19T09:23:42.292Z,93026.72
2023-10-19T09:26:11.049Z,93038.91
2023-10-19T09:28:40.371Z,93047.16
2023-10-19T09:31:12.043Z,93050.75
2023-10-19T09:33:43.956Z,93053.84
2023-10-19T09:36:17.223Z,93053.31
2023-10-19T09:38:50.995Z,93066.19
2023-10-19T09:41:21.942Z,93044.78
2023-10-19T09:43:52.647Z,93065.38
2023-10-19T09:46:28.999Z,93055.53
2023-10-19T09:48:58.922Z,93024.69
2023-10-19T09:51:27.970Z,93060.13
2023-10-19T09:54:08.366Z,93058.59
2023-10-19T09:56:48.035Z,93052.34
2023-10-19T09:59:29.268Z,93058.03
2023-10-19T10:02:20.390Z,93041.50
2023-10-19T10:04:50.191Z,93056.50
2023-10-19T10:07:32.259Z,93062.44
2023-10-19T10:10:07.394Z,93042.28
2023-10-19T10:12:37.299Z,93048.97
2023-10-19T10:15:12.180Z,93059.13
2023-10-19T10:17:41.834Z,93069.50
2023-10-19T10:20:17.026Z,93068.41
2023-10-19T10:22:47.292Z,93066.81
2023-10-19T10:25:33.191Z,93074.75
2023-10-19T10:28:02.121Z,93076.81
2023-10-19T10:30:30.946Z,93084.81
2023-10-19T10:33:01.876Z,93074.19
2023-10-19T10:35:43.077Z,93088.16
2023-10-19T10:38:17.422Z,93086.13
2023-10-19T10:40:46.438Z,93085.31
2023-10-19T10:43:14.997Z,93087.91
2023-10-19T10:45:43.393Z,93077.78
2023-10-19T10:48:19.474Z,93077.50
2023-10-19T10:50:48.335Z,93077.19
2023-10-19T10:53:21.096Z,93075.63
2023-10-19T10:55:49.643Z,93062.91
2023-10-19T10:58:21.040Z,93048.97
2023-10-19T11:00:53.563Z,93070.03
2023-10-19T11:03:25.489Z,93038.25
2023-10-19T11:05:54.396Z,93063.19
2023-10-19T11:08:27.117Z,93063.53
2023-10-19T11:10:56.755Z,93037.66
2023-10-19T11:13:32.331Z,93067.47
2023-10-19T11:16:01.427Z,93074.53
2023-10-19T11:18:38.135Z,93060.38
2023-10-19T11:21:12.068Z,93075.88
2023-10-19T11:23:47.035Z,93058.03
2023-10-19T11:26:19.723Z,93083.66
2023-10-19T11:28:54.016Z,93073.91
2023-10-19T11:31:27.021Z,93077.56
2023-10-19T11:34:00.678Z,93048.59
2023-10-19T11:36:29.004Z,93078.63
2023-10-19T11:38:57.887Z,93055.31
2023-10-19T11:41:26.626Z,93056.88
2023-10-19T11:43:57.644Z,93040.81
2023-10-19T11:46:27.882Z,93060.69
2023-10-19T11:48:57.448Z,93081.06
2023-10-19T11:51:26.911Z,93085.66
2023-10-19T11:53:55.563Z,93085.41
2023-10-19T11:56:24.230Z,93085.56
2023-10-19T11:58:52.894Z,93078.53
2023-10-19T12:01:21.603Z,93089.03
2023-10-19T12:03:50.786Z,93078.94
2023-10-19T12:06:22.646Z,93084.78
2023-10-19T12:08:51.318Z,93095.59
2023-10-19T12:11:21.515Z,93068.16
2023-10-19T12:13:50.192Z,93085.66
2023-10-19T12:16:19.106Z,93095.56
2023-10-19T12:18:48.796Z,93069.59
2023-10-19T12:21:17.599Z,93095.09
2023-10-19T12:23:47.263Z,93101.25
2023-10-19T12:26:16.116Z,93091.28
2023-10-19T12:28:47.129Z,93081.75
2023-10-19T12:31:17.559Z,93091.06
2023-10-19T12:33:47.315Z,93076.56
2023-10-19T12:36:31.007Z,93063.88
2023-10-19T12:39:00.061Z,93070.88
2023-10-19T12:41:31.502Z,93078.31
2023-10-19T12:44:01.339Z,93075.47
2023-10-19T12:46:32.879Z,93073.88
2023-10-19T12:49:01.694Z,93071.88
2023-10-19T12:51:30.179Z,93082.13
2023-10-19T12:53:58.864Z,93053.19
2023-10-19T12:56:30.840Z,93060.84
2023-10-19T12:58:59.606Z,93060.31
2023-10-19T13:01:30.590Z,93082.28
2023-10-19T13:03:59.214Z,93080.59
2023-10-19T13:06:31.728Z,93068.94
2023-10-19T13:09:00.408Z,93070.91
2023-10-19T13:11:29.841Z,93068.25
2023-10-19T13:13:58.521Z,93069.03
2023-10-19T13:16:27.595Z,93068.09
2023-10-19T13:18:56.621Z,93068.19
2023-10-19T13:21:30.202Z,93054.44
2023-10-19T13:24:01.434Z,93062.25
2023-10-19T13:26:31.506Z,93034.88
2023-10-19T13:29:00.458Z,93038.94
2023-10-19T13:31:29.401Z,93066.34
2023-10-19T13:33:59.562Z,93067.91
2023-10-19T13:36:28.436Z,93070.38
2023-10-19T13:38:57.282Z,93072.50
2023-10-19T13:41:25.922Z,93054.84
2023-10-19T13:43:54.664Z,93077.53
2023-10-19T13:46:26.147Z,93093.69
2023-10-19T13:48:54.699Z,93066.41
2023-10-19T13:51:22.716Z,93097.25
2023-10-19T13:53:52.587Z,93089.84
2023-10-19T13:56:21.246Z,93084.94
2023-10-19T13:58:50.435Z,93048.53
2023-10-19T14:01:19.868Z,93062.88
2023-10-19T14:03:49.648Z,93078.34
2023-10-19T14:06:19.298Z,93069.72
2023-10-19T14:08:47.728Z,93082.19
2023-10-19T14:11:16.941Z,93089.09
2023-10-19T14:13:46.024Z,93094.00
2023-10-19T14:16:14.823Z,93087.31
2023-10-19T14:18:46.130Z,93076.41
2023-10-19T14:21:22.528Z,93094.06
2023-10-19T14:23:51.144Z,93104.03
2023-10-19T14:26:20.063Z,93079.66
2023-10-19T14:28:48.705Z,93111.13
2023-10-19T14:31:19.323Z,93113.31
2023-10-19T14:33:48.124Z,93105.84
2023-10-19T14:36:16.838Z,93087.53
2023-10-19T14:38:48.443Z,93106.38
2023-10-19T14:41:17.500Z,93104.66
2023-10-19T14:43:45.700Z,93113.22
2023-10-19T14:46:15.716Z,93106.94
2023-10-19T14:48:44.407Z,93109.19
2023-10-19T14:51:14.215Z,93085.66
2023-10-19T14:53:43.001Z,93108.88
2023-10-19T14:56:11.714Z,93108.81
2023-10-19T14:58:40.343Z,93105.94
2023-10-19T15:01:12.832Z,93088.97
2023-10-19T15:03:41.667Z,93114.75
2023-10-19T15:06:09.873Z,93092.34
2023-10-19T15:08:38.566Z,93106.78
2023-10-19T15:11:07.260Z,93097.56
2023-10-19T15:13:36.472Z,93064.25
2023-10-19T15:16:11.922Z,93090.84
2023-10-19T15:18:41.698Z,93098.03
2023-10-19T15:21:16.507Z,93075.22
2023-10-19T15:23:45.069Z,93064.50
2023-10-19T15:26:20.908Z,93085.47
2023-10-19T15:28:49.948Z,93082.34
2023-10-19T15:31:18.780Z,93082.75
2023-10-19T15:33:48.179Z,93083.03
2023-10-19T15:36:16.718Z,93081.81
2023-10-19T15:38:45.447Z,93078.78
2023-10-19T15:41:14.880Z,93073.94
2023-10-19T15:43:43.203Z,93053.34
2023-10-19T15:46:15.415Z,93077.50
2023-10-19T15:48:44.079Z,93078.09
2023-10-19T15:51:12.811Z,93077.13
2023-10-19T15:53:42.563Z,93047.19
2023-10-19T15:56:11.182Z,93072.84
2023-10-19T15:58:39.800Z,93056.56
2023-10-19T16:01:09.666Z,93070.03
2023-10-19T16:03:39.556Z,93068.47
2023-10-19T16:06:08.351Z,93064.84
2023-10-19T16:08:38.568Z,93072.84
2023-10-19T16:11:07.015Z,93032.25
2023-10-19T16:13:36.064Z,93055.00
2023-10-19T16:16:05.582Z,93058.03
2023-10-19T16:18:34.061Z,93060.84
2023-10-19T16:21:06.683Z,93061.63
2023-10-19T16:23:35.988Z,93030.25
2023-10-19T16:26:04.993Z,93028.41
2023-10-19T16:28:34.502Z,93059.59
2023-10-19T16:31:06.869Z,93054.25
2023-10-19T16:33:35.909Z,93040.94
2023-10-19T16:36:04.846Z,93022.13
2023-10-19T16:38:33.487Z,93021.44
2023-10-19T16:41:03.767Z,93033.53
2023-10-19T16:43:32.473Z,93015.19
2023-10-19T16:46:02.446Z,92998.28
2023-10-19T16:48:30.690Z,93020.47
2023-10-19T16:51:05.980Z,93002.41
2023-10-19T16:53:35.085Z,93021.63
2023-10-19T16:56:05.780Z,93004.38
2023-10-19T16:58:34.565Z,93016.00
2023-10-19T17:01:08.255Z,92993.28
2023-10-19T17:03:38.183Z,93007.69
2023-10-19T17:06:06.889Z,92986.75
2023-10-19T17:08:36.299Z,93000.59
2023-10-19T17:11:05.023Z,92994.03
2023-10-19T17:13:34.907Z,92997.09
2023-10-19T17:16:03.686Z,92992.75
2023-10-19T17:18:32.408Z,92989.59
2023-10-19T17:21:02.932Z,92992.69
2023-10-19T17:23:32.099Z,92980.72
2023-10-19T17:26:00.821Z,92995.19
2023-10-19T17:28:29.472Z,92951.16
2023-10-19T17:30:57.925Z,92994.94
2023-10-19T17:33:27.450Z,92985.19
2023-10-19T17:35:56.272Z,92988.94
2023-10-19T17:38:24.905Z,92987.63
2023-10-19T17:40:53.659Z,92987.38
2023-10-19T17:43:22.316Z,92983.56
2023-10-19T17:45:50.934Z,92976.72
2023-10-19T17:48:19.874Z,92974.94
2023-10-19T17:50:48.494Z,92967.34
2023-10-19T17:53:19.476Z,92946.63
2023-10-19T17:55:48.264Z,92975.31
2023-10-19T17:58:16.669Z,92969.34
2023-10-19T18:00:45.348Z,92969.81
2023-10-19T18:03:14.514Z,92971.19
2023-10-19T18:05:51.611Z,92969.91
2023-10-19T18:08:20.334Z,92961.47
2023-10-19T18:10:49.334Z,92955.00
2023-10-19T18:13:18.743Z,92965.59
2023-10-19T18:15:47.312Z,92946.25
2023-10-19T18:18:15.945Z,92947.44
2023-10-19T18:20:45.153Z,92942.19
2023-10-19T18:23:13.804Z,92943.91
2023-10-19T18:25:44.530Z,92939.91
2023-10-19T18:28:13.431Z,92911.41
2023-10-19T18:30:43.437Z,92916.28
2023-10-19T18:33:14.215Z,92907.75
2023-10-19T18:35:44.520Z,92895.56
2023-10-19T18:38:13.178Z,92911.88
2023-10-19T18:40:43.196Z,92910.94
2023-10-19T18:43:11.787Z,92901.75
2023-10-19T18:45:40.459Z,92899.72
2023-10-19T18:48:09.877Z,92887.34
2023-10-19T18:50:38.560Z,92880.81
2023-10-19T18:53:07.411Z,92881.88
2023-10-19T18:55:37.575Z,92838.91
2023-10-19T18:58:07.769Z,92839.25
2023-10-19T19:00:36.398Z,92863.03
2023-10-19T19:03:05.636Z,92836.50
2023-10-19T19:05:36.493Z,92851.41
2023-10-19T19:08:04.852Z,92844.00
2023-10-19T19:10:36.353Z,92823.91
2023-10-19T19:13:05.882Z,92834.47
2023-10-19T19:15:34.525Z,92809.50
2023-10-19T19:18:03.834Z,92827.03
2023-10-19T19:20:32.586Z,92814.25
2023-10-19T19:23:01.273Z,92813.44
2023-10-19T19:25:29.932Z,92823.88
2023-10-19T19:27:58.512Z,92813.50
2023-10-19T19:30:28.075Z,92813.19
2023-10-19T19:32:56.933Z,92784.28
2023-10-19T19:35:26.187Z,92805.56
2023-10-19T19:37:54.927Z,92791.94
2023-10-19T19:40:25.261Z,92769.44
2023-10-19T19:42:59.587Z,92787.78
2023-10-19T19:45:28.763Z,92754.56
2023-10-19T19:47:58.488Z,92761.69
2023-10-19T19:50:27.198Z,92767.91
2023-10-19T19:52:56.851Z,92747.25
2023-10-19T19:55:25.595Z,92767.84
2023-10-19T19:57:54.200Z,92762.81
2023-10-19T20:00:24.424Z,92743.84
2023-10-19T20:02:53.208Z,92728.38
2023-10-19T20:05:23.161Z,92736.38
2023-10-19T20:07:51.767Z,92723.94
2023-10-19T20:10:20.357Z,92719.03
2023-10-19T20:12:49.071Z,92697.69
2023-10-19T20:15:17.736Z,92700.75
2023-10-19T20:17:46.572Z,92715.88
2023-10-19T20:20:15.418Z,92711.69
2023-10-19T20:22:44.636Z,92702.59
2023-10-19T20:25:16.516Z,92674.47
2023-10-19T20:27:46.483Z,92695.97
2023-10-19T20:30:15.604Z,92699.09
2023-10-19T20:32:48.107Z,92698.00
2023-10-19T20:35:23.173Z,92704.41
2023-10-19T20:37:54.067Z,92693.66
2023-10-19T20:40:25.152Z,92691.88
2023-10-19T20:42:59.865Z,92690.94
2023-10-19T20:45:28.233Z,92684.50
2023-10-19T20:48:00.688Z,92688.59
2023-10-19T20:50:32.575Z,92654.00
2023-10-19T20:53:02.063Z,92665.38
2023-10-19T20:55:30.843Z,92655.78
2023-10-19T20:58:00.406Z,92665.06
2023-10-19T21:00:29.094Z,92645.50
2023-10-19T21:02:58.257Z,92621.47
2023-10-19T21:05:27.447Z,92660.31
2023-10-19T21:07:56.078Z,92656.88
2023-10-19T21:10:24.278Z,92660.72
2023-10-19T21:12:53.022Z,92653.84
2023-10-19T21:15:21.660Z,92655.88
2023-10-19T21:17:52.740Z,92634.34
2023-10-19T21:20:22.281Z,92626.94
2023-10-19T21:22:52.235Z,92639.03
2023-10-19T21:25:24.857Z,92637.50
2023-10-19T21:27:55.157Z,92640.97
2023-10-19T21:30:23.564Z,92633.47
2023-10-19T21:32:52.279Z,92636.81
2023-10-19T21:35:22.819Z,92635.00
2023-10-19T21:37:51.621Z,92615.47
2023-10-19T21:40:20.281Z,92617.19
2023-10-19T21:42:48.903Z,92614.84
2023-10-19T21:45:17.304Z,92613.31
2023-10-19T21:47:47.282Z,92611.09
2023-10-19T21:50:16.224Z,92614.88
2023-10-19T21:52:44.942Z,92605.84
2023-10-19T21:55:13.694Z,92579.81
2023-10-19T21:57:43.910Z,92599.50
2023-10-19T22:00:20.648Z,92590.00
2023-10-19T22:03:00.745Z,92592.06
2023-10-19T22:05:38.038Z,92545.41
2023-10-19T22:08:07.030Z,92561.81
2023-10-19T22:10:36.537Z,92563.94
2023-10-19T22:13:05.242Z,92546.94
2023-10-19T22:15:33.825Z,92573.19
2023-10-19T22:18:02.450Z,92573.63
2023-10-19T22:20:32.644Z,92574.22
2023-10-19T22:23:00.913Z,92563.44
2023-10-19T22:25:31.234Z,92555.38
2023-10-19T22:27:59.617Z,92533.28
2023-10-19T22:30:28.179Z,92522.59
2023-10-19T22:32:56.945Z,92536.94
2023-10-19T22:35:25.634Z,92537.34
2023-10-19T22:37:54.240Z,92537.69
2023-10-19T22:40:22.893Z,92538.56
2023-10-19T22:42:51.463Z,92529.38
2023-10-19T22:45:20.913Z,92512.84
2023-10-19T22:47:49.679Z,92493.66
2023-10-19T22:50:18.807Z,92515.47
2023-10-19T22:52:48.184Z,92493.47
2023-10-19T22:55:19.184Z,92499.63
2023-10-19T22:57:53.531Z,92502.66
2023-10-19T23:00:21.979Z,92481.81
2023-10-19T23:02:51.031Z,92476.03
2023-10-19T23:05:19.847Z,92485.91
2023-10-19T23:07:51.594Z,92485.88
2023-10-19T23:10:22.078Z,92464.22
2023-10-19T23:12:53.365Z,92450.66
2023-10-19T23:15:33.578Z,92452.38
2023-10-19T23:18:03.291Z,92456.69
2023-10-19T23:20:36.201Z,92467.00
2023-10-19T23:23:08.268Z,92457.06
2023-10-19T23:25:40.612Z,92456.69
2023-10-19T23:28:14.524Z,92423.25
2023-10-19T23:30:45.027Z,92443.81
2023-10-19T23:33:14.395Z,92402.00
2023-10-19T23:35:43.090Z,92443.31
2023-10-19T23:38:11.745Z,92426.28
2023-10-19T23:40:40.731Z,92436.88
2023-10-19T23:43:09.505Z,92412.84
2023-10-19T23:45:43.982Z,92431.97
2023-10-19T23:48:16.738Z,92423.56
2023-10-19T23:50:45.366Z,92418.88
2023-10-19T23:53:13.630Z,92425.63
2023-10-19T23:55:43.008Z,92406.06
2023-10-19T23:58:11.670Z,92423.09
